Time;durP1;ratioP1;P1;durP2;ratioP2;P2;SDS_P1;SDS_P2;PMS_P1;PMS_P2;Temp;Humidity;BMP_temperature;BMP_pressure;BME280_temperature;BME280_humidity;BME280_pressure;Samples;Min_cycle;Max_cycle;Signal;HPM_P1;HPM_P2
2021/11/14 00:01:44;;;;;;;16.90;9.82;;;;;;;10.13;100.00;101844.78;5028142;28;20064;-72
2021/11/14 00:04:11;;;;;;;27.80;10.80;;;;;;;10.13;100.00;101847.41;5016799;28;20068;-72
2021/11/14 00:06:37;;;;;;;14.80;10.32;;;;;;;10.15;100.00;101847.47;5025782;28;20068;-72
2021/11/14 00:09:03;;;;;;;19.38;9.63;;;;;;;10.10;100.00;101850.84;5014129;28;20026;-72
2021/11/14 00:11:29;;;;;;;14.90;10.52;;;;;;;10.10;100.00;101856.09;5027476;28;20041;-72
2021/11/14 00:13:57;;;;;;;19.95;10.38;;;;;;;10.08;100.00;101852.53;5036321;28;20437;-72
2021/11/14 00:16:23;;;;;;;21.95;10.93;;;;;;;10.07;100.00;101857.75;5031846;28;20037;-72
2021/11/14 00:18:49;;;;;;;23.30;11.65;;;;;;;10.08;100.00;101863.03;5030210;28;20041;-72
2021/11/14 00:21:17;;;;;;;19.77;11.57;;;;;;;10.07;100.00;101863.88;5028164;28;20474;-72
2021/11/14 00:23:42;;;;;;;22.90;11.32;;;;;;;10.09;100.00;101870.09;5033487;28;20028;-72
2021/11/14 00:26:08;;;;;;;19.65;11.18;;;;;;;10.11;100.00;101871.03;5030511;28;20049;-73
2021/11/14 00:28:34;;;;;;;24.90;11.13;;;;;;;10.09;100.00;101872.72;5026283;28;20112;-72
2021/11/14 00:30:59;;;;;;;24.17;11.77;;;;;;;10.09;100.00;101874.44;5031308;28;20026;-72
2021/11/14 00:33:25;;;;;;;18.77;11.43;;;;;;;10.10;100.00;101876.25;5024098;28;20030;-72
2021/11/14 00:35:52;;;;;;;19.10;12.10;;;;;;;10.08;100.00;101877.94;5025265;28;20366;-72
2021/11/14 00:38:23;;;;;;;23.80;12.02;;;;;;;10.09;100.00;101877.09;5024896;28;20034;-72
2021/11/14 00:40:49;;;;;;;19.95;11.77;;;;;;;10.09;100.00;101880.63;5021080;28;20021;-72
2021/11/14 00:43:14;;;;;;;24.60;12.70;;;;;;;10.08;100.00;101881.47;5025856;28;20390;-71
2021/11/14 00:45:40;;;;;;;18.33;11.90;;;;;;;10.07;100.00;101884.91;5020673;28;20034;-70
2021/11/14 00:48:07;;;;;;;23.55;12.55;;;;;;;10.09;100.00;101879.72;5021362;28;20171;-71
2021/11/14 00:50:34;;;;;;;24.63;12.63;;;;;;;10.10;100.00;101882.38;5017400;28;20029;-72
2021/11/14 00:53:00;;;;;;;19.63;12.57;;;;;;;10.10;100.00;101885.03;5028529;28;20029;-71
2021/11/14 00:55:28;;;;;;;23.40;12.27;;;;;;;10.10;100.00;101881.50;5018831;28;20433;-72
2021/11/14 00:57:54;;;;;;;21.52;12.57;;;;;;;10.10;100.00;101877.13;5018336;28;20449;-71
2021/11/14 01:00:23;;;;;;;20.25;12.40;;;;;;;10.12;100.00;101880.72;5013239;28;20160;-71
2021/11/14 01:02:48;;;;;;;23.27;13.00;;;;;;;10.13;100.00;101878.97;5023099;28;20033;-71
2021/11/14 01:05:16;;;;;;;22.58;13.45;;;;;;;10.12;100.00;101887.72;5025502;28;20425;-71
2021/11/14 01:07:42;;;;;;;19.65;12.05;;;;;;;10.10;100.00;101886.78;5020968;28;20033;-71
2021/11/14 01:10:10;;;;;;;23.25;13.75;;;;;;;10.11;100.00;101885.94;5013134;28;20473;-72
2021/11/14 01:12:36;;;;;;;24.67;14.30;;;;;;;10.11;100.00;101889.44;5028522;28;20040;-72
2021/11/14 01:15:04;;;;;;;21.77;14.00;;;;;;;10.11;100.00;101894.72;5020880;28;20108;-70
2021/11/14 01:17:29;;;;;;;24.08;14.10;;;;;;;10.11;100.00;101894.72;5027999;28;20088;-71
2021/11/14 01:19:57;;;;;;;24.65;14.63;;;;;;;10.11;100.00;101894.72;5020513;28;20109;-72
2021/11/14 01:22:22;;;;;;;24.27;14.60;;;;;;;10.10;100.00;101898.16;5019194;28;20468;-71
2021/11/14 01:24:48;;;;;;;24.40;14.48;;;;;;;10.09;100.00;101901.66;5014574;28;20109;-71
2021/11/14 01:27:14;;;;;;;22.60;13.60;;;;;;;10.10;100.00;101902.53;5020225;28;20100;-72
2021/11/14 01:29:40;;;;;;;27.30;13.90;;;;;;;10.09;100.00;101908.63;5029688;28;20575;-71
2021/11/14 01:32:05;;;;;;;24.98;14.77;;;;;;;10.09;100.00;101906.00;5030279;28;20033;-72
2021/11/14 01:34:31;;;;;;;23.95;13.82;;;;;;;10.07;100.00;101913.84;5031195;28;20041;-72
2021/11/14 01:36:56;;;;;;;27.65;15.10;;;;;;;10.07;100.00;101913.84;5024413;28;20029;-72
2021/11/14 01:39:21;;;;;;;29.90;15.77;;;;;;;10.07;100.00;101908.59;5020172;28;20075;-72
2021/11/14 01:41:47;;;;;;;24.45;14.60;;;;;;;10.09;100.00;101916.53;5020494;28;20030;-72
2021/11/14 01:44:13;;;;;;;29.08;16.08;;;;;;;10.08;100.00;101912.13;5026293;28;20084;-72
2021/11/14 01:46:39;;;;;;;27.38;14.95;;;;;;;10.04;100.00;101915.50;5012262;28;20128;-73
2021/11/14 01:49:04;;;;;;;25.23;15.05;;;;;;;10.04;100.00;101921.63;5031320;28;20128;-71
2021/11/14 01:51:30;;;;;;;24.17;14.55;;;;;;;10.05;100.00;101917.25;5028289;28;20033;-72
2021/11/14 01:53:56;;;;;;;25.50;14.20;;;;;;;10.05;100.00;101925.16;5025334;28;20033;-72
2021/11/14 01:56:22;;;;;;;26.13;15.35;;;;;;;10.03;100.00;101927.72;5024921;28;20029;-72
2021/11/14 01:58:47;;;;;;;30.92;16.33;;;;;;;10.02;100.00;101931.19;5024117;28;20124;-72
2021/11/14 02:01:17;;;;;;;27.00;16.20;;;;;;;10.02;100.00;101936.44;5023508;28;20485;-72
2021/11/14 02:03:49;;;;;;;31.17;16.40;;;;;;;10.01;100.00;101939.94;5023852;28;20033;-72
2021/11/14 02:06:15;;;;;;;23.70;16.30;;;;;;;10.00;100.00;101938.13;5025933;28;20025;-72
2021/11/14 02:08:42;;;;;;;21.85;16.35;;;;;;;9.98;100.00;101945.06;5027211;28;20029;-71
2021/11/14 02:11:14;;;;;;;33.75;18.17;;;;;;;9.95;100.00;101942.34;5027859;28;20029;-71
2021/11/14 02:13:39;;;;;;;32.72;18.42;;;;;;;9.96;100.00;101942.38;5022968;28;20030;-71
2021/11/14 02:16:05;;;;;;;35.65;18.50;;;;;;;9.97;100.00;101943.28;5029304;28;20040;-71
2021/11/14 02:18:30;;;;;;;29.48;17.60;;;;;;;9.96;100.00;101952.03;5020085;28;20377;-71
2021/11/14 02:20:56;;;;;;;36.28;17.77;;;;;;;9.99;100.00;101954.75;5031705;28;20087;-72
2021/11/14 02:23:23;;;;;;;31.88;17.83;;;;;;;9.98;100.00;101960.84;5035642;28;20029;-72
2021/11/14 02:25:50;;;;;;;30.73;18.25;;;;;;;10.00;100.00;101968.78;5022748;28;20397;-72
2021/11/14 02:28:17;;;;;;;25.42;16.95;;;;;;;9.99;100.00;101962.63;5025026;28;20161;-71
2021/11/14 02:30:45;;;;;;;28.45;18.25;;;;;;;10.00;100.00;101963.53;5030757;28;20095;-72
2021/11/14 02:33:11;;;;;;;33.15;20.13;;;;;;;10.02;100.00;101967.13;5021129;28;20052;-72
2021/11/14 02:35:38;;;;;;;34.53;20.45;;;;;;;10.02;100.00;101973.25;5026456;28;20065;-72
2021/11/14 02:38:04;;;;;;;32.35;20.10;;;;;;;10.03;100.00;101974.19;5030237;28;20113;-71
2021/11/14 02:40:30;;;;;;;33.65;19.23;;;;;;;10.04;100.00;101976.84;5031688;28;20109;-72
2021/11/14 02:42:56;;;;;;;29.65;19.65;;;;;;;10.04;100.00;101976.84;5028015;28;20400;-71
2021/11/14 02:45:25;;;;;;;27.33;19.13;;;;;;;10.04;100.00;101975.97;5025129;28;20108;-71
2021/11/14 02:47:51;;;;;;;32.83;20.08;;;;;;;10.03;100.00;101977.69;5027202;28;20033;-72
2021/11/14 02:50:18;;;;;;;34.90;21.38;;;;;;;10.02;100.00;101975.88;5034254;28;20022;-72
2021/11/14 02:52:44;;;;;;;33.10;20.48;;;;;;;10.02;100.00;101981.16;5018534;28;20026;-72
2021/11/14 02:55:12;;;;;;;32.90;20.88;;;;;;;10.03;100.00;101985.59;5032155;28;20501;-71
2021/11/14 02:57:38;;;;;;;33.20;21.67;;;;;;;10.05;100.00;101983.91;5027482;28;20039;-72
2021/11/14 03:00:10;;;;;;;33.50;21.02;;;;;;;10.01;100.00;101981.09;5018834;28;20038;-71
2021/11/14 03:02:35;;;;;;;28.55;20.77;;;;;;;10.02;100.00;101982.91;5019400;28;20042;-72
2021/11/14 03:05:09;;;;;;;31.65;20.27;;;;;;;10.00;100.00;101985.47;5021758;28;20423;-70
2021/11/14 03:07:34;;;;;;;34.25;20.50;;;;;;;9.98;100.00;101986.25;5021699;28;20389;-70
2021/11/14 03:10:00;;;;;;;31.58;19.27;;;;;;;9.96;100.00;101991.47;5024356;28;20037;-71
2021/11/14 03:12:26;;;;;;;33.20;19.95;;;;;;;9.95;100.00;101994.91;5025476;28;20060;-71
2021/11/14 03:14:51;;;;;;;31.55;20.13;;;;;;;9.94;100.00;101999.28;5013586;28;20493;-72
2021/11/14 03:17:16;;;;;;;34.55;21.50;;;;;;;9.94;100.00;102001.00;5027393;28;20029;-73
2021/11/14 03:19:42;;;;;;;39.78;23.27;;;;;;;9.95;100.00;102002.81;5025811;28;20033;-72
2021/11/14 03:22:08;;;;;;;33.45;21.85;;;;;;;9.98;100.00;102008.16;5026670;28;20029;-71
2021/11/14 03:24:33;;;;;;;35.55;22.65;;;;;;;9.98;100.00;102013.44;5034454;28;20421;-72
2021/11/14 03:26:59;;;;;;;30.08;19.95;;;;;;;9.98;100.00;102013.44;5026972;28;20045;-72
2021/11/14 03:29:25;;;;;;;41.90;23.17;;;;;;;9.98;100.00;102018.69;5031561;28;20457;-71
2021/11/14 03:31:50;;;;;;;37.17;22.70;;;;;;;9.98;100.00;102016.06;5024346;28;20022;-72
2021/11/14 03:34:15;;;;;;;36.30;23.42;;;;;;;9.98;100.00;102021.31;5032434;28;20033;-71
2021/11/14 03:36:41;;;;;;;37.78;23.23;;;;;;;9.97;100.00;102022.19;5029205;28;20053;-71
2021/11/14 03:39:07;;;;;;;38.22;24.02;;;;;;;9.98;100.00;102025.69;5030595;28;20025;-71
2021/11/14 03:41:36;;;;;;;38.35;22.52;;;;;;;9.98;100.00;102029.22;5030374;28;20596;-70
2021/11/14 03:44:03;;;;;;;38.45;22.75;;;;;;;9.98;100.00;102031.84;5035661;28;20389;-72
2021/11/14 03:46:28;;;;;;;36.78;22.48;;;;;;;9.98;100.00;102026.56;5028437;28;20465;-71
2021/11/14 03:48:55;;;;;;;37.97;23.38;;;;;;;9.99;100.00;102036.28;5029877;28;20025;-72
2021/11/14 03:51:21;;;;;;;39.20;23.27;;;;;;;9.98;100.00;102039.72;5024479;28;20030;-71
2021/11/14 03:53:48;;;;;;;35.58;21.13;;;;;;;9.99;100.00;102031.00;5032969;28;20033;-72
2021/11/14 03:56:14;;;;;;;34.40;22.88;;;;;;;9.98;100.00;102039.72;5026112;28;20528;-71
2021/11/14 03:58:39;;;;;;;44.33;22.38;;;;;;;9.95;100.00;102039.63;5029034;28;20108;-71
2021/11/14 04:01:09;;;;;;;44.97;21.90;;;;;;;9.94;100.00;102037.81;5027949;28;20055;-71
2021/11/14 04:03:35;;;;;;;42.58;23.85;;;;;;;9.92;100.00;102035.13;5025832;28;20080;-71
2021/11/14 04:06:00;;;;;;;42.13;23.83;;;;;;;9.93;100.00;102042.19;5026058;28;20503;-71
2021/11/14 04:08:26;;;;;;;39.25;23.80;;;;;;;9.95;100.00;102040.50;5028481;28;20022;-71
2021/11/14 04:10:55;;;;;;;46.95;24.02;;;;;;;9.95;100.00;102045.75;5028549;28;20405;-72
2021/11/14 04:13:21;;;;;;;44.53;23.38;;;;;;;9.94;100.00;102056.22;5024006;28;20111;-71
2021/11/14 04:15:47;;;;;;;49.97;24.38;;;;;;;9.94;100.00;102058.84;5031618;28;20103;-72
2021/11/14 04:18:13;;;;;;;50.22;25.20;;;;;;;9.95;100.00;102058.03;5029104;28;20033;-71
2021/11/14 04:20:42;;;;;;;47.85;23.48;;;;;;;9.94;100.00;102057.13;5028729;28;20033;-71
2021/11/14 04:23:10;;;;;;;52.63;23.50;;;;;;;9.95;100.00;102065.91;5024067;28;20128;-71
2021/11/14 04:25:36;;;;;;;47.65;24.55;;;;;;;9.93;100.00;102063.22;5028160;28;20108;-72
2021/11/14 04:28:02;;;;;;;53.63;23.65;;;;;;;9.94;100.00;102074.63;5024663;28;20462;-72
2021/11/14 04:30:28;;;;;;;50.38;23.88;;;;;;;9.94;100.00;102086.06;5015777;28;20123;-72
2021/11/14 04:32:55;;;;;;;50.17;25.02;;;;;;;9.93;100.00;102084.25;5032387;28;20061;-72
2021/11/14 04:35:21;;;;;;;52.53;24.90;;;;;;;9.94;100.00;102085.16;5031927;28;20055;-73
2021/11/14 04:37:49;;;;;;;54.97;25.20;;;;;;;9.94;100.00;102077.25;5022754;28;20053;-71
2021/11/14 04:40:16;;;;;;;58.83;24.65;;;;;;;9.95;100.00;102084.31;5031978;28;20026;-72
2021/11/14 04:42:41;;;;;;;55.47;24.70;;;;;;;9.93;100.00;102084.25;5022303;28;20036;-71
2021/11/14 04:45:07;;;;;;;61.50;25.17;;;;;;;9.92;100.00;102085.09;5027178;28;20025;-71
2021/11/14 04:47:33;;;;;;;64.68;26.00;;;;;;;9.92;100.00;102087.72;5021628;28;20123;-71
2021/11/14 04:49:59;;;;;;;59.75;26.20;;;;;;;9.94;100.00;102090.41;5028385;28;20044;-71
2021/11/14 04:52:25;;;;;;;52.75;24.30;;;;;;;9.94;100.00;102091.31;5021497;28;20789;-72
2021/11/14 04:54:50;;;;;;;61.50;25.25;;;;;;;9.92;100.00;102094.72;5027598;28;20108;-71
2021/11/14 04:57:16;;;;;;;67.10;24.55;;;;;;;9.93;100.00;102096.53;5027564;28;20043;-72
2021/11/14 04:59:41;;;;;;;55.38;25.35;;;;;;;9.92;100.00;102097.34;5024156;28;20053;-72
2021/11/14 05:02:07;;;;;;;62.38;26.17;;;;;;;9.92;100.00;102102.59;5023726;28;20162;-72
2021/11/14 05:04:32;;;;;;;63.00;25.92;;;;;;;9.92;100.00;102097.34;5028406;28;20033;-72
2021/11/14 05:06:58;;;;;;;61.63;24.85;;;;;;;9.91;100.00;102101.69;5025552;28;20025;-72
2021/11/14 05:09:23;;;;;;;58.72;24.85;;;;;;;9.91;100.00;102100.81;5028071;28;20033;-72
2021/11/14 05:11:48;;;;;;;63.30;25.33;;;;;;;9.92;100.00;102102.59;5022191;28;20041;-72
2021/11/14 05:14:14;;;;;;;66.75;25.40;;;;;;;9.90;100.00;102104.25;5026723;28;20355;-73
2021/11/14 05:16:40;;;;;;;56.35;24.50;;;;;;;9.91;100.00;102106.06;5029082;28;20034;-72
2021/11/14 05:19:05;;;;;;;58.25;24.90;;;;;;;9.88;100.00;102112.09;5028920;28;20036;-71
2021/11/14 05:21:30;;;;;;;70.90;26.30;;;;;;;9.91;100.00;102116.59;5019342;28;20045;-72
2021/11/14 05:23:56;;;;;;;68.63;26.42;;;;;;;9.91;100.00;102121.84;5027351;28;20036;-72
2021/11/14 05:26:21;;;;;;;67.85;25.00;;;;;;;9.90;100.00;102115.69;5021886;28;20105;-72
2021/11/14 05:28:47;;;;;;;61.42;24.48;;;;;;;9.88;100.00;102116.47;5021455;28;20068;-72
2021/11/14 05:31:12;;;;;;;67.88;25.15;;;;;;;9.88;100.00;102121.72;5029292;28;20076;-72
2021/11/14 05:33:38;;;;;;;62.40;23.60;;;;;;;9.88;100.00;102135.75;5024586;28;20044;-72
2021/11/14 05:36:03;;;;;;;65.00;26.35;;;;;;;9.87;100.00;102133.06;5025306;28;20028;-72
2021/11/14 05:38:29;;;;;;;67.13;23.70;;;;;;;9.86;100.00;102136.53;5029577;28;20049;-72
2021/11/14 05:40:54;;;;;;;55.83;23.05;;;;;;;9.84;100.00;102140.84;5028895;28;20481;-72
2021/11/14 05:43:19;;;;;;;68.93;25.42;;;;;;;9.83;100.00;102142.56;5025219;28;20033;-72
2021/11/14 05:45:45;;;;;;;62.65;23.55;;;;;;;9.83;100.00;102146.94;5027503;28;20025;-73
2021/11/14 05:48:11;;;;;;;68.63;23.42;;;;;;;9.78;100.00;102152.91;5027804;28;20025;-70
2021/11/14 05:50:37;;;;;;;61.17;22.95;;;;;;;9.81;100.00;102152.13;5025976;28;20038;-72
2021/11/14 05:53:03;;;;;;;63.53;24.13;;;;;;;9.80;100.00;102152.97;5031062;28;20427;-70
2021/11/14 05:55:28;;;;;;;61.13;23.35;;;;;;;9.81;100.00;102156.47;5031095;28;20533;-72
2021/11/14 05:58:16;;;;;;;57.90;23.90;;;;;;;9.79;100.00;102156.41;5034148;28;20121;-71
2021/11/14 06:01:29;;;;;;;68.68;23.63;;;;;;;9.77;100.00;102164.25;5027747;28;20053;-72
2021/11/14 06:03:35;;;;;;;60.92;22.08;;;;;;;9.77;100.00;102166.88;5025765;28;20533;-71
2021/11/14 06:06:01;;;;;;;54.33;21.27;;;;;;;9.77;100.00;102166.88;5028848;28;20026;-72
2021/11/14 06:08:26;;;;;;;59.67;22.30;;;;;;;9.76;100.00;102175.59;5030972;28;20091;-70
2021/11/14 06:10:53;;;;;;;56.28;20.92;;;;;;;9.72;100.00;102172.78;5032868;28;20037;-72
2021/11/14 06:13:24;;;;;;;56.10;22.10;;;;;;;9.70;100.00;102174.44;5030149;28;20037;-71
2021/11/14 06:15:50;;;;;;;61.88;21.85;;;;;;;9.65;100.00;102171.63;5030038;28;20065;-71
2021/11/14 06:18:15;;;;;;;50.97;21.10;;;;;;;9.66;100.00;102176.06;5042535;28;20028;-72
2021/11/14 06:20:43;;;;;;;57.67;21.60;;;;;;;9.62;100.00;102177.66;5031013;28;20026;-71
2021/11/14 06:23:08;;;;;;;56.70;22.10;;;;;;;9.61;100.00;102180.22;5029869;28;20029;-71
2021/11/14 06:25:34;;;;;;;57.65;23.17;;;;;;;9.58;100.00;102186.22;5032219;28;20035;-72
2021/11/14 06:28:00;;;;;;;59.05;22.55;;;;;;;9.59;100.00;102197.63;5027343;28;20021;-71
2021/11/14 06:30:25;;;;;;;60.55;24.58;;;;;;;9.56;100.00;102198.44;5027894;28;20044;-71
2021/11/14 06:32:51;;;;;;;62.17;22.90;;;;;;;9.56;100.00;102198.44;5030782;28;20076;-72
2021/11/14 06:35:16;;;;;;;62.10;24.00;;;;;;;9.56;100.00;102200.13;5030343;28;20109;-72
2021/11/14 06:37:42;;;;;;;66.53;23.95;;;;;;;9.56;100.00;102208.94;5025051;28;20052;-71
2021/11/14 06:40:08;;;;;;;62.67;23.50;;;;;;;9.56;100.00;102218.53;5026501;28;20033;-72
2021/11/14 06:42:34;;;;;;;67.18;24.95;;;;;;;9.56;100.00;102218.53;5026357;28;20037;-71
2021/11/14 06:45:00;;;;;;;72.78;25.10;;;;;;;9.53;100.00;102221.03;5028217;28;20100;-72
2021/11/14 06:47:25;;;;;;;66.97;25.05;;;;;;;9.54;100.00;102215.84;5030781;28;20057;-72
2021/11/14 06:49:52;;;;;;;65.60;23.60;;;;;;;9.55;100.00;102227.25;5031163;28;20025;-71
2021/11/14 06:52:23;;;;;;;70.53;24.45;;;;;;;9.54;100.00;102228.09;5029702;28;20030;-72
2021/11/14 06:54:52;;;;;;;66.50;24.85;;;;;;;9.52;100.00;102233.28;5032451;28;20104;-72
2021/11/14 06:57:19;;;;;;;77.40;25.35;;;;;;;9.52;100.00;102243.81;5030265;28;20033;-72
2021/11/14 06:59:45;;;;;;;75.45;25.75;;;;;;;9.53;100.00;102247.31;5032486;28;20118;-72
2021/11/14 07:02:10;;;;;;;73.18;25.17;;;;;;;9.52;100.00;102242.88;5034767;28;20049;-73
2021/11/14 07:04:36;;;;;;;81.55;27.20;;;;;;;9.50;100.00;102250.69;5026885;28;20037;-72
2021/11/14 07:07:03;;;;;;;64.32;23.90;;;;;;;9.54;100.00;102262.25;5029245;28;20505;-72
2021/11/14 07:09:28;;;;;;;72.18;25.25;;;;;;;9.57;100.00;102259.75;5034726;28;20078;-71
2021/11/14 07:11:54;;;;;;;75.85;26.52;;;;;;;9.53;100.00;102263.09;5031684;28;20025;-71
2021/11/14 07:14:23;;;;;;;86.22;27.85;;;;;;;9.51;100.00;102265.66;5016121;28;20022;-72
2021/11/14 07:16:49;;;;;;;72.05;26.60;;;;;;;9.54;100.00;102280.66;5039605;28;20076;-72
2021/11/14 07:19:14;;;;;;;61.47;23.20;;;;;;;9.55;100.00;102277.16;5030733;28;20555;-71
2021/11/14 07:21:39;;;;;;;72.55;26.27;;;;;;;9.56;100.00;102292.13;5033325;28;20033;-75
2021/11/14 07:24:05;;;;;;;75.22;26.15;;;;;;;9.52;100.00;102288.47;5030290;28;20041;-75
2021/11/14 07:26:30;;;;;;;72.50;27.13;;;;;;;9.53;100.00;102297.25;4995806;28;1067243;-75
2021/11/14 07:28:56;;;;;;;69.80;26.27;;;;;;;9.55;100.00;102298.19;5032668;28;20397;-75
2021/11/14 07:31:22;;;;;;;70.20;26.70;;;;;;;9.50;100.00;102302.38;5030515;28;20073;-75
2021/11/14 07:33:47;;;;;;;75.70;26.85;;;;;;;9.50;100.00;102305.88;5034609;28;20040;-76
2021/11/14 07:36:13;;;;;;;63.42;26.17;;;;;;;9.52;100.00;102311.19;5033163;28;20017;-76
2021/11/14 07:38:38;;;;;;;70.93;28.50;;;;;;;9.56;100.00;102313.13;5031697;28;20477;-74
2021/11/14 07:41:03;;;;;;;76.07;26.15;;;;;;;9.60;100.00;102320.31;5031093;28;20075;-76
2021/11/14 07:43:29;;;;;;;71.93;27.98;;;;;;;9.56;100.00;102323.66;5025618;28;20033;-76
2021/11/14 07:45:55;;;;;;;70.65;27.42;;;;;;;9.56;100.00;102328.91;5033378;28;20107;-75
2021/11/14 07:48:20;;;;;;;74.75;28.67;;;;;;;9.54;100.00;102325.31;5029561;28;20040;-75
2021/11/14 07:50:46;;;;;;;74.28;28.45;;;;;;;9.54;100.00;102335.84;5031771;28;20465;-75
2021/11/14 07:53:13;;;;;;;76.30;29.50;;;;;;;9.52;100.00;102337.47;5029188;28;20022;-74
2021/11/14 07:55:38;;;;;;;67.35;27.48;;;;;;;9.51;100.00;102346.19;5032390;28;20033;-75
2021/11/14 07:58:06;;;;;;;65.18;27.05;;;;;;;9.53;100.00;102341.91;5022909;28;20026;-76
2021/11/14 08:00:32;;;;;;;64.03;26.85;;;;;;;9.52;100.00;102340.09;5030734;28;20127;-75
2021/11/14 08:02:58;;;;;;;68.32;26.25;;;;;;;9.53;100.00;102344.53;5031088;28;20091;-75
2021/11/14 08:05:24;;;;;;;63.78;27.17;;;;;;;9.56;100.00;102349.94;5033935;28;20401;-76
2021/11/14 08:07:49;;;;;;;60.42;25.35;;;;;;;9.59;100.00;102355.31;5030655;28;20029;-74
2021/11/14 08:10:17;;;;;;;62.00;27.88;;;;;;;9.60;100.00;102357.13;5030969;28;20025;-74
2021/11/14 08:12:43;;;;;;;66.95;27.13;;;;;;;9.65;100.00;102360.84;5026301;28;20039;-74
2021/11/14 08:15:09;;;;;;;60.28;25.05;;;;;;;9.67;100.00;102363.56;5034411;28;20083;-71
2021/11/14 08:17:35;;;;;;;63.80;26.38;;;;;;;9.73;100.00;102359.47;5029310;28;20029;-72
2021/11/14 08:20:01;;;;;;;61.88;26.50;;;;;;;9.77;100.00;102365.78;5025984;28;20367;-71
2021/11/14 08:22:29;;;;;;;68.15;28.23;;;;;;;9.75;100.00;102378.84;5028035;28;20084;-72
2021/11/14 08:24:56;;;;;;;64.72;27.77;;;;;;;9.73;100.00;102369.97;5027213;28;20033;-72
2021/11/14 08:27:25;;;;;;;75.88;29.42;;;;;;;9.73;100.00;102369.09;5032259;28;20044;-70
2021/11/14 08:29:51;;;;;;;68.22;28.73;;;;;;;9.75;100.00;102370.97;5027352;28;20045;-73
2021/11/14 08:32:17;;;;;;;66.28;28.35;;;;;;;9.71;100.00;102376.91;5031014;28;20029;-72
2021/11/14 08:34:43;;;;;;;72.80;29.05;;;;;;;9.70;100.00;102367.22;5029926;28;20037;-70
2021/11/14 08:37:10;;;;;;;70.32;28.05;;;;;;;9.69;100.00;102368.03;5028401;28;20032;-70
2021/11/14 08:39:35;;;;;;;64.75;29.48;;;;;;;9.72;100.00;102381.31;5033963;28;20147;-71
2021/11/14 08:42:00;;;;;;;67.80;28.95;;;;;;;9.68;100.00;102382.00;5023305;28;20572;-72
2021/11/14 08:44:28;;;;;;;64.65;27.08;;;;;;;9.71;100.00;102384.81;5024780;28;20033;-73
2021/11/14 08:46:54;;;;;;;68.75;28.83;;;;;;;9.72;100.00;102389.19;5027844;28;20380;-71
2021/11/14 08:49:19;;;;;;;68.43;29.73;;;;;;;9.70;100.00;102395.22;5032701;28;20034;-72
2021/11/14 08:51:44;;;;;;;65.35;28.25;;;;;;;9.71;100.00;102387.44;5031593;28;20392;-71
2021/11/14 08:54:10;;;;;;;72.43;28.83;;;;;;;9.69;100.00;102391.69;5028416;28;20477;-71
2021/11/14 08:56:36;;;;;;;72.30;30.17;;;;;;;9.71;100.00;102392.69;5025116;28;20408;-71
2021/11/14 08:59:04;;;;;;;73.28;28.52;;;;;;;9.73;100.00;102395.38;5027723;28;20513;-72
2021/11/14 09:01:31;;;;;;;68.55;28.90;;;;;;;9.75;100.00;102389.38;5024884;28;20033;-71
2021/11/14 09:03:56;;;;;;;65.55;28.88;;;;;;;9.77;100.00;102406.09;5031371;28;20389;-72
2021/11/14 09:06:21;;;;;;;59.50;27.35;;;;;;;9.85;100.00;102400.25;5025070;28;20049;-71
2021/11/14 09:08:47;;;;;;;66.07;29.40;;;;;;;9.85;100.00;102402.91;5021799;28;20022;-71
2021/11/14 09:11:13;;;;;;;67.85;29.35;;;;;;;9.87;100.00;102403.88;5029802;28;20408;-70
2021/11/14 09:13:39;;;;;;;73.72;29.52;;;;;;;9.86;100.00;102408.25;5027458;28;20076;-71
2021/11/14 09:16:04;;;;;;;67.88;28.85;;;;;;;9.91;100.00;102405.81;5031323;28;20026;-72
2021/11/14 09:18:30;;;;;;;58.08;27.77;;;;;;;9.95;100.00;102413.00;5026424;28;20037;-70
2021/11/14 09:20:56;;;;;;;65.40;28.25;;;;;;;10.04;100.00;102408.16;5027210;28;20044;-70
2021/11/14 09:23:21;;;;;;;56.72;27.15;;;;;;;10.06;100.00;102409.09;5030796;28;20022;-71
2021/11/14 09:25:48;;;;;;;65.30;28.30;;;;;;;10.04;100.00;102405.53;5028949;28;20041;-70
2021/11/14 09:28:16;;;;;;;56.72;27.67;;;;;;;10.06;100.00;102406.47;5024892;28;20022;-75
2021/11/14 09:30:44;;;;;;;63.95;28.33;;;;;;;10.08;100.00;102411.84;5027954;28;20103;-73
2021/11/14 09:33:11;;;;;;;60.50;28.40;;;;;;;10.12;100.00;102422.53;5026817;28;20056;-76
2021/11/14 09:35:37;;;;;;;55.63;28.35;;;;;;;10.18;100.00;102423.66;5036064;28;20049;-75
2021/11/14 09:38:04;;;;;;;53.97;27.20;;;;;;;10.29;100.00;102430.25;5025381;28;20630;-75
2021/11/14 09:40:29;;;;;;;52.17;26.42;;;;;;;10.30;100.00;102435.59;5027490;28;20053;-73
2021/11/14 09:42:57;;;;;;;56.65;27.40;;;;;;;10.32;100.00;102443.53;5030819;28;20032;-75
2021/11/14 09:45:27;;;;;;;46.88;24.85;;;;;;;10.34;100.00;102443.63;5028824;28;20025;-75
2021/11/14 09:47:53;;;;;;;47.97;24.38;;;;;;;10.36;100.00;102442.00;5031724;28;20045;-75
2021/11/14 09:50:19;;;;;;;44.38;23.75;;;;;;;10.39;100.00;102453.56;5026094;28;20033;-77
2021/11/14 09:52:44;;;;;;;49.95;25.30;;;;;;;10.41;100.00;102449.25;5029551;28;20125;-76
2021/11/14 09:55:11;;;;;;;49.38;24.80;;;;;;;10.44;100.00;102462.56;5030300;28;20108;-76
2021/11/14 09:57:38;;;;;;;46.40;22.77;;;;;;;10.48;100.00;102462.69;5026468;28;20032;-76
2021/11/14 10:00:07;;;;;;;45.25;23.27;;;;;;;10.46;100.00;102460.88;5030272;28;20109;-76
2021/11/14 10:02:33;;;;;;;45.00;23.17;;;;;;;10.45;100.00;102468.72;5031165;28;20468;-77
2021/11/14 10:04:58;;;;;;;51.10;24.02;;;;;;;10.41;100.00;102462.41;5032124;28;20025;-77
2021/11/14 10:07:24;;;;;;;44.78;24.27;;;;;;;10.41;100.00;102466.78;5023783;28;20033;-76
2021/11/14 10:09:52;;;;;;;50.97;23.80;;;;;;;10.42;100.00;102468.59;5030167;28;20056;-76
2021/11/14 10:12:27;;;;;;;50.83;24.45;;;;;;;10.39;100.00;102474.59;5027828;28;20470;-75
2021/11/14 10:15:12;;;;;;;49.00;25.58;;;;;;;10.42;100.00;102481.75;5027609;28;20112;-77
2021/11/14 10:17:43;;;;;;;47.80;25.15;;;;;;;10.42;100.00;102473.84;5029895;28;20087;-76
2021/11/14 10:20:17;;;;;;;44.03;22.58;;;;;;;10.41;100.00;102478.19;5035717;28;20064;-74
2021/11/14 10:22:48;;;;;;;45.78;23.98;;;;;;;10.46;100.00;102479.28;5034945;28;20034;-76
2021/11/14 10:25:15;;;;;;;44.17;22.92;;;;;;;10.52;100.00;102483.03;5029247;28;20029;-77
2021/11/14 10:27:41;;;;;;;42.22;22.45;;;;;;;10.48;100.00;102476.72;5037074;28;20489;-76
2021/11/14 10:30:12;;;;;;;40.72;21.52;;;;;;;10.50;100.00;102484.69;5036293;28;20025;-74
2021/11/14 10:32:38;;;;;;;40.40;22.48;;;;;;;10.52;100.00;102486.56;5035894;28;20451;-77
2021/11/14 10:35:05;;;;;;;40.80;22.05;;;;;;;10.47;100.00;102485.44;5033384;28;20026;-77
2021/11/14 10:37:32;;;;;;;40.28;21.83;;;;;;;10.49;100.00;102488.19;5030774;28;20120;-77
2021/11/14 10:40:03;;;;;;;40.03;21.17;;;;;;;10.43;100.00;102500.22;5032857;28;20035;-76
2021/11/14 10:42:33;;;;;;;40.10;20.55;;;;;;;10.35;100.00;102493.72;5028561;28;20091;-75
2021/11/14 10:45:02;;;;;;;35.00;20.52;;;;;;;10.37;100.00;102497.31;5033360;28;20025;-75
2021/11/14 10:47:30;;;;;;;40.30;20.45;;;;;;;10.37;100.00;102501.69;5023131;28;20030;-77
2021/11/14 10:50:13;;;;;;;37.53;20.08;;;;;;;10.36;100.00;102505.13;5029433;28;20025;-75
2021/11/14 10:52:55;;;;;;;37.93;20.00;;;;;;;10.37;100.00;102512.22;5017220;28;20034;-76
2021/11/14 10:55:21;;;;;;;34.95;19.08;;;;;;;10.42;100.00;102511.56;5028289;28;20803;-76
2021/11/14 10:57:48;;;;;;;33.17;19.05;;;;;;;10.45;100.00;102516.09;5028258;28;20045;-76
2021/11/14 11:00:15;;;;;;;31.52;17.98;;;;;;;10.43;100.00;102513.38;5031802;28;20030;-75
2021/11/14 11:02:43;;;;;;;34.08;19.55;;;;;;;10.37;100.00;102523.63;5032148;28;20087;-77
2021/11/14 11:05:15;;;;;;;33.78;18.05;;;;;;;10.40;100.00;102526.38;5031008;28;20017;-77